Latest Weather Observations for Ben Nevis

IDV60801

Issued at 1:03 pm EDT Tuesday 21 November 2017 (issued every 30 minutes, with the page automatically refreshed every 10 minutes)

About weather observations | Map of weather stations | Latest weather observations for VIC | Other Formats
Station Details ID: 079101 Name: BEN NEVIS Lat: -37.23 Lon: 143.20 Height: 875.0 m
Data from the previous 72 hours. | See also: Recent months at Ben Nevis
Date/Time
EDT
Temp
°C
App
Temp
°C
Dew
Point
°C
Rel
Hum
%
Delta-T
°C
Wind Press
QNH
hPa
Press
MSL
hPa
Rain since
9am
mm
Dir  Spd
km/h
Gust
km/h
Spd
kts
Gust
kts
21/01:00pm 23.7 19.6 6.0 32 9.4 NNE 17 30 9 16 - - 0.0
21/12:30pm 23.4 19.1 7.1 35 8.8 NNE 19 35 10 19 - - 0.0
21/12:00pm 23.5 19.1 6.7 34 9.0 NNE 19 32 10 17 - - 0.0
21/11:30am 22.1 17.9 7.5 39 7.9 NNE 19 32 10 17 - - 0.0
21/11:00am 21.7 18.0 7.9 41 7.5 NNE 17 24 9 13 - - 0.0
21/10:30am 22.0 18.6 7.8 40 7.7 NNE 15 30 8 16 - - 0.0
21/10:00am 22.0 18.7 8.2 41 7.6 NNE 15 24 8 13 - - 0.0
21/09:30am 20.3 17.6 8.9 48 6.3 NNE 13 20 7 11 - - 0.0
21/09:00am 20.1 17.2 8.1 46 6.5 NNE 13 20 7 11 - - 0.0
21/08:30am 20.5 17.2 8.2 45 6.7 NNE 15 28 8 15 - - 0.0
21/08:00am 19.8 16.4 7.5 45 6.6 NNE 15 26 8 14 - - 0.0
21/07:30am 18.9 13.9 6.4 44 6.5 NNE 22 35 12 19 - - 0.0
21/07:00am 18.2 13.3 6.7 47 6.0 NNE 22 41 12 22 - - 0.0
21/06:30am 17.2 12.7 7.0 51 5.3 NNE 20 33 11 18 - - 0.0
21/06:00am 17.9 11.4 4.5 41 6.7 NNE 28 39 15 21 - - 0.0
21/05:30am 18.1 12.8 2.8 36 7.4 NNE 20 32 11 17 - - 0.0
21/05:00am 18.2 12.9 2.9 36 7.4 NNE 20 33 11 18 - - 0.0
21/04:30am 18.6 12.9 2.9 35 7.6 NNE 22 37 12 20 - - 0.0
21/04:00am 18.5 13.1 4.3 39 7.1 NNE 22 32 12 17 - - 0.0
21/03:30am 18.8 13.6 5.3 41 6.9 NNE 22 35 12 19 - - 0.0
21/03:00am 18.8 13.9 4.9 40 7.0 NNE 20 30 11 16 - - 0.0
21/02:30am 18.5 14.0 6.0 44 6.4 NNE 19 30 10 16 - - 0.0
21/02:00am 18.6 14.1 7.1 47 6.1 NE 20 32 11 17 - - 0.0
21/01:30am 18.2 13.6 8.2 52 5.4 NE 22 32 12 17 - - 0.0
21/01:00am 18.2 13.6 8.2 52 5.4 ENE 22 30 12 16 - - 0.0
21/12:30am 18.3 13.8 8.6 53 5.2 ENE 22 30 12 16 - - 0.0
21/12:00am 18.1 14.1 9.2 56 4.9 ENE 20 30 11 16 - - 0.0
 
Date/Time
EDT
Temp
°C
App
Temp
°C
Dew
Point
°C
Rel
Hum
%
Delta-T
°C
Wind Press
QNH
hPa
Press
MSL
hPa
Rain since
9am
mm
Dir  Spd
km/h
Gust
km/h
Spd
kts
Gust
kts
20/11:30pm 18.8 14.4 7.3 47 6.1 ENE 20 30 11 16 - - 0.0
20/11:00pm 19.8 15.2 6.5 42 7.0 NE 20 32 11 17 - - 0.0
20/10:30pm 20.5 15.0 6.1 39 7.5 NNE 24 33 13 18 - - 0.0
20/10:00pm 20.3 16.2 6.3 40 7.3 NE 17 26 9 14 - - 0.0
20/09:30pm 20.4 16.0 6.4 40 7.4 NE 19 26 10 14 - - 0.0
20/09:00pm 21.0 16.5 6.2 38 7.8 NE 19 28 10 15 - - 0.0
20/08:30pm 21.2 17.0 5.9 37 8.0 NNE 17 24 9 13 - - 0.0
20/08:00pm 21.1 17.9 7.0 40 7.5 NE 13 19 7 10 - - 0.0
20/07:30pm 21.3 17.8 7.2 40 7.6 NNE 15 26 8 14 - - 0.0
20/07:00pm 21.8 18.7 7.2 39 7.9 NE 13 22 7 12 - - 0.0
20/06:30pm 22.1 18.9 6.7 37 8.2 NE 13 20 7 11 - - 0.0
20/06:00pm 22.6 19.6 7.6 38 8.2 ENE 13 28 7 15 - - 0.0
20/05:30pm 21.9 17.5 6.6 37 8.1 NE 19 30 10 16 - - 0.0
20/05:00pm 23.8 19.9 7.0 34 9.1 NE 17 30 9 16 - - 0.0
20/04:30pm 24.2 20.9 6.5 32 9.5 NNE 13 26 7 14 - - 0.0
20/04:00pm 24.3 20.9 6.1 31 9.7 NE 13 28 7 15 - - 0.0
20/03:30pm 23.8 19.2 5.7 31 9.6 NE 19 30 10 16 - - 0.0
20/03:00pm 24.8 21.7 7.4 33 9.5 NNE 13 30 7 16 - - 0.0
20/02:30pm 25.1 21.9 8.6 35 9.3 NNE 15 28 8 15 - - 0.0
20/02:00pm 24.1 20.3 7.7 35 9.0 NNE 17 32 9 17 - - 0.0
20/01:30pm 22.5 18.0 8.6 41 7.7 NE 22 35 12 19 - - 0.0
20/01:00pm 24.5 21.1 9.3 38 8.6 NE 17 30 9 16 - - 0.0
20/12:30pm 22.8 19.0 9.9 44 7.3 NE 20 33 11 18 - - 0.0
20/12:00pm 22.3 19.1 11.1 49 6.5 NE 19 32 10 17 - - 0.0
20/11:30am 20.9 17.7 11.8 56 5.3 ENE 20 41 11 22 - - 0.0
20/11:00am 19.8 16.0 11.0 57 5.0 NE 22 33 12 18 - - 0.0
20/10:30am 19.3 15.1 9.8 54 5.3 NE 22 32 12 17 - - 0.0
20/10:00am 19.3 14.5 8.9 51 5.7 NE 24 35 13 19 - - 0.0
20/09:30am 17.8 14.2 10.7 63 4.0 NE 20 37 11 20 - - 0.0
20/09:00am 16.6 11.7 10.0 65 3.6 NE 26 35 14 19 - - 0.0
20/08:30am 16.0 10.5 9.2 64 3.7 NE 28 43 15 23 - - 0.0
20/08:00am 15.8 9.5 8.8 63 3.7 NE 32 44 17 24 - - 0.0
20/07:30am 15.4 9.3 8.4 63 3.7 NE 30 44 16 24 - - 0.0
20/07:06am 15.4 9.3 8.2 62 3.8 NE 30 48 16 26 - - 0.0
20/07:00am 15.4 8.7 8.2 62 3.8 NE 33 48 18 26 - - 0.0
20/06:45am 15.2 8.7 8.2 63 3.7 NE 32 50 17 27 - - 0.0
20/06:30am 15.6 8.5 7.9 60 4.0 NE 35 50 19 27 - - 0.0
20/06:00am 15.6 8.9 8.1 61 4.0 NE 33 54 18 29 - - 0.0
20/05:49am 15.5 8.8 8.3 62 3.8 NE 33 52 18 28 - - 0.0
20/05:30am 15.8 9.1 8.3 61 4.0 NE 33 50 18 27 - - 0.0
20/05:28am 15.8 9.3 8.1 60 4.1 NE 32 50 17 27 - - 0.0
20/05:00am 16.0 9.3 8.2 60 4.1 NE 33 46 18 25 - - 0.0
20/04:30am 16.3 10.5 9.3 63 3.8 NE 30 41 16 22 - - 0.0
20/04:00am 16.8 10.7 9.7 63 3.9 NE 32 48 17 26 - - 0.0
20/03:30am 16.9 11.3 10.3 65 3.7 NE 30 41 16 22 - - 0.0
20/03:00am 17.5 11.6 10.4 63 4.0 NE 32 44 17 24 - - 0.0
20/02:30am 17.3 11.9 10.9 66 3.6 NE 30 41 16 22 - - 0.0
20/02:00am 17.1 11.8 11.4 69 3.2 NE 30 39 16 21 - - 0.0
20/01:30am 17.2 12.0 11.7 70 3.1 NE 30 41 16 22 - - 0.0
20/01:00am 17.1 12.0 12.0 72 2.9 NE 30 41 16 22 - - 0.0
20/12:30am 17.2 11.8 12.1 72 2.9 ENE 32 39 17 21 - - 0.0
20/12:00am 17.2 12.5 12.1 72 2.9 ENE 28 39 15 21 - - 0.0
 
Date/Time
EDT
Temp
°C
App
Temp
°C
Dew
Point
°C
Rel
Hum
%
Delta-T
°C
Wind Press
QNH
hPa
Press
MSL
hPa
Rain since
9am
mm
Dir  Spd
km/h
Gust
km/h
Spd
kts
Gust
kts
19/11:30pm 17.6 12.7 11.2 66 3.6 NE 28 39 15 21 - - 0.0
19/11:00pm 17.3 12.4 11.3 68 3.4 ENE 28 41 15 22 - - 0.0
19/10:30pm 17.5 12.5 11.1 66 3.6 ENE 28 39 15 21 - - 0.0
19/10:00pm 18.1 12.9 10.2 60 4.4 ENE 28 37 15 20 - - 0.0
19/09:30pm 18.2 13.0 10.3 60 4.4 ENE 28 39 15 21 - - 0.0
19/09:00pm 18.4 13.2 10.3 59 4.5 NE 28 39 15 21 - - 0.0
19/08:30pm 18.6 14.6 10.4 59 4.6 ENE 22 35 12 19 - - 0.0
19/08:00pm 18.9 15.3 10.5 58 4.7 ENE 20 33 11 18 - - 0.0
19/07:30pm 19.1 15.1 10.4 57 4.9 ENE 22 32 12 17 - - 0.0
19/07:00pm 19.5 15.8 10.2 55 5.2 ENE 20 33 11 18 - - 0.0
19/06:30pm 19.8 16.5 11.0 57 5.0 ENE 19 32 10 17 - - 0.0
19/06:00pm 19.9 15.9 10.6 55 5.3 ENE 22 41 12 22 - - 0.0
19/05:30pm 20.0 17.6 11.5 58 4.9 ENE 15 26 8 14 - - 0.0
19/05:00pm 20.1 17.2 11.1 56 5.1 NE 17 26 9 14 - - 0.0
19/04:30pm 20.1 16.9 11.1 56 5.1 NE 19 28 10 15 - - 0.0
19/04:00pm 20.9 18.2 11.8 56 5.3 ENE 17 32 9 17 - - 0.0
19/03:30pm 21.1 17.7 11.2 53 5.7 NE 20 35 11 19 - - 0.0
19/03:00pm 20.4 17.2 11.3 56 5.2 NE 19 32 10 17 - - 0.0
19/02:30pm 20.0 16.4 10.4 54 5.4 NE 20 33 11 18 - - 0.0
19/02:00pm 20.6 17.5 12.1 58 5.0 NE 20 35 11 19 - - 0.0
19/01:30pm 18.9 15.3 11.7 63 4.1 NE 22 37 12 20 - - 0.0
19/01:00pm 19.8 15.9 12.1 61 4.5 NE 24 41 13 22 - - 0.0
19/12:30pm 19.2 16.3 12.2 64 4.1 NE 19 32 10 17 - - 0.0
19/12:00pm 18.8 15.6 11.9 64 4.0 NE 20 32 11 17 - - 0.0
19/11:30am 19.6 16.8 12.6 64 4.1 ENE 19 30 10 16 - - 0.0
19/11:00am 19.1 16.5 13.1 68 3.5 NE 19 33 10 18 - - 0.0
19/10:30am 17.5 14.5 11.8 69 3.3 NE 19 32 10 17 - - 0.0
19/10:00am 16.7 13.0 11.4 71 3.0 NE 22 35 12 19 - - 0.0
19/09:30am 15.6 11.9 11.6 77 2.3 NE 22 35 12 19 - - 0.0
19/09:00am 14.4 9.5 11.2 81 1.8 NE 28 39 15 21 - - 0.0
19/08:37am 14.1 9.2 11.4 84 1.5 NE 28 46 15 25 - - 0.0
19/08:30am 13.7 8.4 11.2 85 1.4 NE 30 44 16 24 - - 0.0
19/08:00am 12.8 6.5 10.9 88 1.0 NNE 35 50 19 27 - - 0.0
19/07:30am 12.6 6.7 11.0 90 0.9 NE 33 54 18 29 - - 0.0
19/07:00am 12.4 6.5 11.0 91 0.8 NE 33 52 18 28 - - 0.0
19/06:58am 12.4 6.5 11.0 91 0.8 NE 33 52 18 28 - - 0.0
19/06:30am 12.2 6.6 11.4 95 0.4 NE 32 46 17 25 - - 0.0
19/06:06am 12.3 5.7 11.5 95 0.4 NE 37 56 20 30 - - 0.0
19/06:00am 12.4 5.8 11.5 94 0.5 NE 37 54 20 29 - - 0.0
19/05:30am 12.5 5.6 11.7 95 0.4 NE 39 56 21 30 - - 0.0
19/05:10am 12.4 5.6 11.9 97 0.3 NE 39 57 21 31 - - 0.0
19/05:00am 12.4 5.2 11.8 96 0.3 NE 41 56 22 30 - - 0.0
19/04:30am 12.6 6.2 12.0 96 0.3 NE 37 52 20 28 - - 0.0
19/04:00am 12.9 6.9 12.0 94 0.5 NE 35 46 19 25 - - 0.0
19/03:30am 13.0 7.3 11.9 93 0.6 NE 33 44 18 24 - - 0.0
19/03:00am 13.5 7.8 11.9 90 0.9 NE 33 46 18 25 - - 0.0
19/02:30am 13.8 8.3 12.0 89 1.0 NE 32 43 17 23 - - 0.0
19/02:00am 13.8 9.6 12.4 91 0.8 NE 26 37 14 20 - - 0.0
19/01:30am 14.4 9.4 12.3 87 1.2 NE 30 43 16 23 - - 0.0
19/01:00am 14.7 10.2 12.6 87 1.2 ENE 28 39 15 21 - - 0.0
19/12:30am 15.1 10.6 12.6 85 1.4 NE 28 39 15 21 - - 0.0
19/12:00am 15.2 11.4 12.5 84 1.5 ENE 24 35 13 19 - - 0.0
 
Date/Time
EDT
Temp
°C
App
Temp
°C
Dew
Point
°C
Rel
Hum
%
Delta-T
°C
Wind Press
QNH
hPa
Press
MSL
hPa
Rain since
9am
mm
Dir  Spd
km/h
Gust
km/h
Spd
kts
Gust
kts
18/11:30pm 15.4 11.2 12.3 82 1.8 ENE 26 33 14 18 - - 0.0
18/11:00pm 15.5 11.7 12.3 81 1.8 ENE 24 35 13 19 - - 0.0
18/10:30pm 15.7 11.1 12.3 80 1.9 NE 28 37 15 20 - - 0.0
18/10:00pm 15.7 12.6 12.1 79 2.1 NE 20 30 11 16 - - 0.0
18/09:30pm 16.0 12.1 12.0 77 2.3 NE 24 35 13 19 - - 0.0
18/09:00pm 16.2 11.9 12.0 76 2.4 NE 26 37 14 20 - - 0.0
18/08:30pm 16.6 12.9 12.8 78 2.2 NE 24 35 13 19 - - 0.0
18/08:00pm 17.1 12.2 12.4 74 2.7 NE 30 44 16 24 - - 0.0
18/07:30pm 17.8 14.0 12.3 70 3.2 NE 24 35 13 19 - - 0.0
18/07:00pm 18.4 13.2 11.7 65 3.8 NE 30 44 16 24 - - 0.0
18/06:56pm 18.6 13.8 11.7 64 4.0 NE 28 44 15 24 - - 0.0
18/06:30pm 21.4 20.0 9.0 45 6.9 ENE 6 11 3 6 - - 0.0
18/06:00pm 20.8 19.0 9.4 48 6.3 E 9 13 5 7 - - 0.0
18/05:30pm 20.0 16.3 9.3 50 5.9 ENE 19 28 10 15 - - 0.0
18/05:00pm 21.9 19.6 9.1 44 7.1 ENE 11 17 6 9 - - 0.0
18/04:30pm 21.9 19.9 8.8 43 7.3 ENE 9 15 5 8 - - 0.0
18/04:00pm 22.0 19.8 9.2 44 7.1 NE 11 24 6 13 - - 0.0
18/03:30pm 23.0 20.5 8.3 39 8.1 NNE 11 20 6 11 - - 0.0
18/03:00pm 21.1 18.3 8.7 45 6.8 ENE 13 24 7 13 - - 0.0
18/02:30pm 21.7 19.2 9.6 46 6.8 ENE 13 28 7 15 - - 0.0
18/02:00pm 21.8 19.2 9.3 45 7.0 NE 13 24 7 13 - - 0.0
18/01:30pm 21.6 18.4 10.1 48 6.5 NNE 17 28 9 15 - - 0.0

Other Formats:

Comma delimited format used in spreadsheet applications
http://www.bom.gov.au/fwo/IDV60801/IDV60801.94835.axf

JavaScript Object Notation format (JSON) in row-major order
http://www.bom.gov.au/fwo/IDV60801/IDV60801.94835.json